createdAt,value
2022-09-28T03:41:18.271Z,9.14
2022-09-28T03:44:24.463Z,9.14
2022-09-28T03:47:27.341Z,8.58
2022-09-28T03:50:33.162Z,8.58
2022-09-28T03:53:36.764Z,8.58
2022-09-28T03:56:40.598Z,8.59
2022-09-28T03:59:43.176Z,8.59
2022-09-28T04:02:46.252Z,8.63
2022-09-28T04:05:51.067Z,8.63
2022-09-28T04:08:53.844Z,8.65
2022-09-28T04:12:03.836Z,8.66
2022-09-28T04:15:08.259Z,8.68
2022-09-28T04:18:12.590Z,8.68
2022-09-28T04:21:18.075Z,8.67
2022-09-28T04:24:21.523Z,8.67
2022-09-28T04:27:42.628Z,8.69
2022-09-28T04:30:47.372Z,8.70
2022-09-28T04:33:49.983Z,8.74
2022-09-28T04:36:52.819Z,8.77
2022-09-28T04:39:55.495Z,8.79
2022-09-28T04:42:58.417Z,8.77
2022-09-28T04:46:03.010Z,8.72
2022-09-28T04:49:07.078Z,8.68
2022-09-28T04:52:17.310Z,8.68
2022-09-28T04:55:21.319Z,8.65
2022-09-28T04:58:23.988Z,8.60
2022-09-28T05:01:27.292Z,8.54
2022-09-28T05:04:31.203Z,8.52
2022-09-28T05:07:35.588Z,8.40
2022-09-28T05:10:41.381Z,8.33
2022-09-28T05:13:45.710Z,8.29
2022-09-28T05:16:49.176Z,8.27
2022-09-28T05:19:53.460Z,8.25
2022-09-28T05:22:56.357Z,8.21
2022-09-28T05:26:02.111Z,8.20
2022-09-28T05:29:05.069Z,8.18
2022-09-28T05:32:09.092Z,8.19
2022-09-28T05:35:12.039Z,8.23
2022-09-28T05:38:15.106Z,8.50
2022-09-28T05:41:19.312Z,8.72
2022-09-28T05:44:22.279Z,8.95
2022-09-28T05:47:26.424Z,9.21
2022-09-28T05:50:31.602Z,9.44
2022-09-28T05:53:34.257Z,9.68
2022-09-28T05:56:37.138Z,9.85
2022-09-28T05:59:42.228Z,10.02
2022-09-28T06:02:56.117Z,10.21
2022-09-28T06:06:02.461Z,10.39
2022-09-28T06:09:05.350Z,10.58
2022-09-28T06:12:09.587Z,10.73
2022-09-28T06:15:13.279Z,10.87
2022-09-28T06:18:16.204Z,11.04
2022-09-28T06:21:18.880Z,11.16
2022-09-28T06:24:21.874Z,11.33
2022-09-28T06:27:24.731Z,11.48
2022-09-28T06:30:28.566Z,11.64
2022-09-28T06:33:31.264Z,11.79
2022-09-28T06:36:34.159Z,11.96
2022-09-28T06:39:38.133Z,12.11
2022-09-28T06:42:41.277Z,12.26
2022-09-28T06:45:53.597Z,12.38
2022-09-28T06:48:56.908Z,12.59
2022-09-28T06:52:02.262Z,12.73
2022-09-28T06:55:08.421Z,12.90
2022-09-28T06:58:15.084Z,13.02
2022-09-28T07:01:18.301Z,13.21
2022-09-28T07:04:21.349Z,13.35
2022-09-28T07:07:29.560Z,13.47
2022-09-28T07:10:32.970Z,13.56
2022-09-28T07:13:49.832Z,13.63
2022-09-28T07:17:12.370Z,13.71
2022-09-28T07:20:19.345Z,13.91
2022-09-28T07:23:23.351Z,13.91
2022-09-28T07:26:33.348Z,13.98
2022-09-28T07:29:36.294Z,14.13
2022-09-28T07:32:41.193Z,14.21
2022-09-28T07:35:54.077Z,14.38
2022-09-28T07:38:59.618Z,14.51
2022-09-28T07:42:03.451Z,14.57
2022-09-28T07:45:07.366Z,14.72
2022-09-28T07:51:13.019Z,15.03
2022-09-28T07:54:15.528Z,15.29
2022-09-28T07:57:20.531Z,15.61
2022-09-28T08:00:29.803Z,15.59
2022-09-28T08:03:35.539Z,15.62
2022-09-28T08:06:40.472Z,15.59
2022-09-28T08:09:45.465Z,15.64
2022-09-28T08:13:01.965Z,15.76
2022-09-28T08:16:08.434Z,15.99
2022-09-28T08:19:11.546Z,16.12
2022-09-28T08:22:15.606Z,16.42
2022-09-28T08:25:18.480Z,16.55
2022-09-28T08:28:23.796Z,16.41
2022-09-28T08:31:26.606Z,16.18
2022-09-28T08:34:30.035Z,16.01
2022-09-28T08:37:32.832Z,16.07
2022-09-28T08:40:49.685Z,15.93
2022-09-28T08:44:24.092Z,15.92
2022-09-28T08:47:53.022Z,16.07
2022-09-28T08:51:03.001Z,16.07
2022-09-28T08:54:12.666Z,15.75
2022-09-28T08:57:55.359Z,15.68
2022-09-28T09:00:59.324Z,16.03
2022-09-28T09:04:04.316Z,16.17
2022-09-28T09:07:14.088Z,15.96
2022-09-28T09:10:58.222Z,15.82
2022-09-28T09:14:09.631Z,15.78
2022-09-28T09:17:12.460Z,15.84
2022-09-28T09:20:20.510Z,16.05
2022-09-28T09:23:38.405Z,16.03
2022-09-28T09:26:41.664Z,16.18
2022-09-28T09:29:54.840Z,16.36
2022-09-28T09:33:35.093Z,16.51
2022-09-28T09:36:59.634Z,16.56
2022-09-28T09:40:33.588Z,16.54
2022-09-28T09:43:50.723Z,16.64
2022-09-28T09:47:08.170Z,16.87
2022-09-28T09:50:30.917Z,16.90
2022-09-28T09:53:42.030Z,17.52
2022-09-28T09:56:59.732Z,18.22
2022-09-28T10:00:05.428Z,18.30
2022-09-28T10:03:29.317Z,19.12
2022-09-28T10:06:37.654Z,19.63
2022-09-28T10:09:45.948Z,19.69
2022-09-28T10:12:51.361Z,19.32
2022-09-28T10:15:56.376Z,19.53
2022-09-28T10:19:00.803Z,19.92
2022-09-28T10:22:16.061Z,19.74
2022-09-28T10:25:20.445Z,19.45
2022-09-28T10:28:40.691Z,19.30
2022-09-28T10:32:02.929Z,19.53
2022-09-28T10:35:25.304Z,19.05
2022-09-28T10:38:31.051Z,18.97
2022-09-28T10:41:34.018Z,19.09
2022-09-28T10:45:25.171Z,18.78
2022-09-28T10:48:30.154Z,18.52
2022-09-28T10:51:48.058Z,18.68
2022-09-28T10:54:53.953Z,18.69
2022-09-28T10:57:57.332Z,19.00
2022-09-28T11:01:06.384Z,19.14
2022-09-28T11:04:20.100Z,19.44
2022-09-28T11:07:32.232Z,19.20
2022-09-28T11:10:36.593Z,19.18
2022-09-28T11:13:48.003Z,19.17
2022-09-28T11:17:29.667Z,18.77
2022-09-28T11:20:35.578Z,18.54
2022-09-28T11:23:38.974Z,18.84
2022-09-28T11:26:48.038Z,19.26
2022-09-28T11:30:00.885Z,19.61
2022-09-28T11:33:11.878Z,20.07
2022-09-28T11:36:17.164Z,20.38
2022-09-28T11:40:01.739Z,20.61
2022-09-28T11:43:31.249Z,20.49
2022-09-28T11:46:46.283Z,20.56
2022-09-28T11:50:22.885Z,20.88
2022-09-28T11:53:43.006Z,20.79
2022-09-28T11:56:50.476Z,20.51
2022-09-28T11:59:59.100Z,20.50
2022-09-28T12:03:06.054Z,20.57
2022-09-28T12:06:19.826Z,20.59
2022-09-28T12:09:35.909Z,20.68
2022-09-28T12:12:56.820Z,20.75
2022-09-28T12:17:00.543Z,20.41
2022-09-28T12:19:48.793Z,20.45
2022-09-28T12:22:59.748Z,20.74
2022-09-28T12:26:06.178Z,20.87
2022-09-28T12:29:15.607Z,20.97
2022-09-28T12:32:39.271Z,20.88
2022-09-28T12:35:47.908Z,20.85
2022-09-28T12:39:57.621Z,21.50
2022-09-28T12:43:33.458Z,21.43
2022-09-28T12:46:48.933Z,22.01
2022-09-28T12:53:57.813Z,22.07
2022-09-28T12:57:34.563Z,21.89
2022-09-28T13:00:53.380Z,25.74
2022-09-28T13:04:25.929Z,28.44
2022-09-28T13:07:56.574Z,30.76
2022-09-28T13:11:20.920Z,32.23
2022-09-28T13:15:08.797Z,34.68
2022-09-28T13:18:31.586Z,34.54
2022-09-28T13:22:00.128Z,35.36
2022-09-28T13:25:10.428Z,35.63
2022-09-28T13:28:16.752Z,36.72
2022-09-28T13:31:22.828Z,32.95
2022-09-28T13:34:28.871Z,30.00
2022-09-28T13:37:31.807Z,30.47
2022-09-28T13:41:03.690Z,30.24
2022-09-28T13:44:20.275Z,30.48
2022-09-28T13:47:51.633Z,29.13
2022-09-28T13:51:19.181Z,30.81
2022-09-28T13:54:58.100Z,31.35
2022-09-28T13:58:05.551Z,30.44
2022-09-28T14:01:17.595Z,28.21
2022-09-28T14:04:23.541Z,29.01
2022-09-28T14:07:58.494Z,29.23
2022-09-28T14:11:34.395Z,29.21
2022-09-28T14:14:49.160Z,33.58
2022-09-28T14:18:13.963Z,37.99
2022-09-28T14:21:53.890Z,37.66
2022-09-28T14:25:15.344Z,34.66
2022-09-28T14:28:37.896Z,35.93
2022-09-28T14:31:43.265Z,37.69
2022-09-28T14:34:55.152Z,32.88
2022-09-28T14:38:25.100Z,30.94
2022-09-28T14:41:38.211Z,30.18
2022-09-28T14:45:06.332Z,30.14
2022-09-28T14:48:19.302Z,28.54
2022-09-28T14:51:26.217Z,26.94
2022-09-28T14:54:54.236Z,25.26
2022-09-28T14:57:58.369Z,23.75
2022-09-28T15:01:12.305Z,23.06
2022-09-28T15:04:16.701Z,21.93
2022-09-28T15:07:46.103Z,21.12
2022-09-28T15:10:50.527Z,20.46
2022-09-28T15:14:07.153Z,19.82
2022-09-28T15:17:11.556Z,19.88
2022-09-28T15:20:24.521Z,19.86
2022-09-28T15:23:30.139Z,19.76
2022-09-28T15:26:34.347Z,19.52
